sensor_id;sensor_type;location;lat;lon;timestamp;temperature;humidity
54431;DHT22;40342;52.998;5.862;2023-06-19T00:02:02;22.00;91.60
54431;DHT22;40342;52.998;5.862;2023-06-19T00:04:28;22.00;91.60
54431;DHT22;40342;52.998;5.862;2023-06-19T00:06:54;22.00;91.70
54431;DHT22;40342;52.998;5.862;2023-06-19T00:09:20;22.10;91.70
54431;DHT22;40342;52.998;5.862;2023-06-19T00:11:45;22.00;91.70
54431;DHT22;40342;52.998;5.862;2023-06-19T00:14:11;22.00;91.80
54431;DHT22;40342;52.998;5.862;2023-06-19T00:16:37;22.00;91.80
54431;DHT22;40342;52.998;5.862;2023-06-19T00:19:02;22.00;91.80
54431;DHT22;40342;52.998;5.862;2023-06-19T00:21:29;22.00;91.90
54431;DHT22;40342;52.998;5.862;2023-06-19T00:23:55;22.00;91.90
54431;DHT22;40342;52.998;5.862;2023-06-19T00:26:21;21.90;92.00
54431;DHT22;40342;52.998;5.862;2023-06-19T00:28:51;22.00;92.00
54431;DHT22;40342;52.998;5.862;2023-06-19T00:31:17;21.90;92.00
54431;DHT22;40342;52.998;5.862;2023-06-19T00:33:45;21.90;92.10
54431;DHT22;40342;52.998;5.862;2023-06-19T00:36:15;22.00;92.20
54431;DHT22;40342;52.998;5.862;2023-06-19T00:38:41;21.90;92.20
54431;DHT22;40342;52.998;5.862;2023-06-19T00:41:08;21.90;92.20
54431;DHT22;40342;52.998;5.862;2023-06-19T00:43:34;21.90;92.20
54431;DHT22;40342;52.998;5.862;2023-06-19T00:46:00;21.90;92.20
54431;DHT22;40342;52.998;5.862;2023-06-19T00:48:27;21.90;92.30
54431;DHT22;40342;52.998;5.862;2023-06-19T00:50:54;21.90;92.30
54431;DHT22;40342;52.998;5.862;2023-06-19T00:53:22;21.90;92.30
54431;DHT22;40342;52.998;5.862;2023-06-19T00:55:48;21.90;92.40
54431;DHT22;40342;52.998;5.862;2023-06-19T00:58:17;21.90;92.30
54431;DHT22;40342;52.998;5.862;2023-06-19T01:00:43;21.90;92.30
54431;DHT22;40342;52.998;5.862;2023-06-19T01:03:09;21.90;92.20
54431;DHT22;40342;52.998;5.862;2023-06-19T01:05:34;21.90;92.20
54431;DHT22;40342;52.998;5.862;2023-06-19T01:08:04;21.80;92.20
54431;DHT22;40342;52.998;5.862;2023-06-19T01:10:40;21.90;92.20
54431;DHT22;40342;52.998;5.862;2023-06-19T01:13:16;21.80;92.20
54431;DHT22;40342;52.998;5.862;2023-06-19T01:15:43;21.90;92.10
54431;DHT22;40342;52.998;5.862;2023-06-19T01:18:09;21.80;92.20
54431;DHT22;40342;52.998;5.862;2023-06-19T01:20:38;21.80;92.20
54431;DHT22;40342;52.998;5.862;2023-06-19T01:23:11;21.80;92.10
54431;DHT22;40342;52.998;5.862;2023-06-19T01:25:37;21.80;92.10
54431;DHT22;40342;52.998;5.862;2023-06-19T01:28:04;21.80;92.00
54431;DHT22;40342;52.998;5.862;2023-06-19T01:30:31;21.80;92.10
54431;DHT22;40342;52.998;5.862;2023-06-19T01:33:02;21.80;92.00
54431;DHT22;40342;52.998;5.862;2023-06-19T01:35:33;21.80;92.00
54431;DHT22;40342;52.998;5.862;2023-06-19T01:38:00;21.70;92.00
54431;DHT22;40342;52.998;5.862;2023-06-19T01:40:27;21.80;92.00
54431;DHT22;40342;52.998;5.862;2023-06-19T01:42:58;21.70;92.00
54431;DHT22;40342;52.998;5.862;2023-06-19T01:45:29;21.70;92.00
54431;DHT22;40342;52.998;5.862;2023-06-19T01:47:55;21.70;91.90
54431;DHT22;40342;52.998;5.862;2023-06-19T01:50:24;21.70;91.90
54431;DHT22;40342;52.998;5.862;2023-06-19T01:52:50;21.70;91.70
54431;DHT22;40342;52.998;5.862;2023-06-19T01:55:16;21.70;91.60
54431;DHT22;40342;52.998;5.862;2023-06-19T01:57:42;21.70;91.60
54431;DHT22;40342;52.998;5.862;2023-06-19T02:00:08;21.70;91.50
54431;DHT22;40342;52.998;5.862;2023-06-19T02:02:38;21.60;91.50
54431;DHT22;40342;52.998;5.862;2023-06-19T02:05:03;21.70;91.50
54431;DHT22;40342;52.998;5.862;2023-06-19T02:07:30;21.60;91.50
54431;DHT22;40342;52.998;5.862;2023-06-19T02:09:56;21.60;91.50
54431;DHT22;40342;52.998;5.862;2023-06-19T02:12:22;21.60;91.40
54431;DHT22;40342;52.998;5.862;2023-06-19T02:14:48;21.60;91.40
54431;DHT22;40342;52.998;5.862;2023-06-19T02:17:13;21.60;91.40
54431;DHT22;40342;52.998;5.862;2023-06-19T02:19:39;21.60;91.50
54431;DHT22;40342;52.998;5.862;2023-06-19T02:22:05;21.60;92.00
54431;DHT22;40342;52.998;5.862;2023-06-19T02:24:32;21.60;92.30
54431;DHT22;40342;52.998;5.862;2023-06-19T02:26:57;21.60;92.60
54431;DHT22;40342;52.998;5.862;2023-06-19T02:29:24;21.60;93.00
54431;DHT22;40342;52.998;5.862;2023-06-19T02:31:50;21.50;93.50
54431;DHT22;40342;52.998;5.862;2023-06-19T02:34:16;21.50;93.50
54431;DHT22;40342;52.998;5.862;2023-06-19T02:36:41;21.50;93.50
54431;DHT22;40342;52.998;5.862;2023-06-19T02:39:08;21.50;93.70
54431;DHT22;40342;52.998;5.862;2023-06-19T02:41:34;21.40;94.20
54431;DHT22;40342;52.998;5.862;2023-06-19T02:43:59;21.40;94.00
54431;DHT22;40342;52.998;5.862;2023-06-19T02:46:25;21.40;94.10
54431;DHT22;40342;52.998;5.862;2023-06-19T02:48:50;21.40;94.20
54431;DHT22;40342;52.998;5.862;2023-06-19T02:51:16;21.30;94.20
54431;DHT22;40342;52.998;5.862;2023-06-19T02:53:41;21.40;94.20
54431;DHT22;40342;52.998;5.862;2023-06-19T02:56:09;21.40;94.10
54431;DHT22;40342;52.998;5.862;2023-06-19T02:58:35;21.40;94.10
54431;DHT22;40342;52.998;5.862;2023-06-19T03:01:03;21.40;94.10
54431;DHT22;40342;52.998;5.862;2023-06-19T03:03:28;21.40;94.20
54431;DHT22;40342;52.998;5.862;2023-06-19T03:05:55;21.40;94.20
54431;DHT22;40342;52.998;5.862;2023-06-19T03:08:20;21.30;94.30
54431;DHT22;40342;52.998;5.862;2023-06-19T03:10:46;21.30;94.40
54431;DHT22;40342;52.998;5.862;2023-06-19T03:13:12;21.20;94.60
54431;DHT22;40342;52.998;5.862;2023-06-19T03:15:38;21.20;94.80
54431;DHT22;40342;52.998;5.862;2023-06-19T03:18:03;21.20;95.00
54431;DHT22;40342;52.998;5.862;2023-06-19T03:20:32;21.10;95.20
54431;DHT22;40342;52.998;5.862;2023-06-19T03:22:58;21.00;95.70
54431;DHT22;40342;52.998;5.862;2023-06-19T03:25:23;21.00;96.40
54431;DHT22;40342;52.998;5.862;2023-06-19T03:27:49;21.00;96.90
54431;DHT22;40342;52.998;5.862;2023-06-19T03:30:14;21.00;97.10
54431;DHT22;40342;52.998;5.862;2023-06-19T03:32:44;20.90;97.30
54431;DHT22;40342;52.998;5.862;2023-06-19T03:35:09;20.90;97.50
54431;DHT22;40342;52.998;5.862;2023-06-19T03:37:35;20.90;97.80
54431;DHT22;40342;52.998;5.862;2023-06-19T03:40:01;20.80;98.00
54431;DHT22;40342;52.998;5.862;2023-06-19T03:42:28;20.80;98.20
54431;DHT22;40342;52.998;5.862;2023-06-19T03:44:54;20.70;98.60
54431;DHT22;40342;52.998;5.862;2023-06-19T03:47:20;20.60;99.00
54431;DHT22;40342;52.998;5.862;2023-06-19T03:49:46;20.60;99.30
54431;DHT22;40342;52.998;5.862;2023-06-19T03:52:13;20.60;99.60
54431;DHT22;40342;52.998;5.862;2023-06-19T03:54:39;20.50;99.90
54431;DHT22;40342;52.998;5.862;2023-06-19T03:57:05;20.50;99.90
54431;DHT22;40342;52.998;5.862;2023-06-19T03:59:31;20.50;99.90
54431;DHT22;40342;52.998;5.862;2023-06-19T04:01:57;20.40;99.90
54431;DHT22;40342;52.998;5.862;2023-06-19T04:04:22;20.40;99.90
54431;DHT22;40342;52.998;5.862;2023-06-19T04:06:48;20.40;99.90
54431;DHT22;40342;52.998;5.862;2023-06-19T04:09:13;20.40;99.90
54431;DHT22;40342;52.998;5.862;2023-06-19T04:11:39;20.30;99.90
54431;DHT22;40342;52.998;5.862;2023-06-19T04:14:05;20.30;99.90
54431;DHT22;40342;52.998;5.862;2023-06-19T04:16:30;20.30;99.90
54431;DHT22;40342;52.998;5.862;2023-06-19T04:18:56;20.30;99.90
54431;DHT22;40342;52.998;5.862;2023-06-19T04:21:21;20.30;99.90
54431;DHT22;40342;52.998;5.862;2023-06-19T04:23:47;20.30;99.90
54431;DHT22;40342;52.998;5.862;2023-06-19T04:26:12;20.40;99.90
54431;DHT22;40342;52.998;5.862;2023-06-19T04:28:38;20.40;99.90
54431;DHT22;40342;52.998;5.862;2023-06-19T04:31:04;20.40;99.90
54431;DHT22;40342;52.998;5.862;2023-06-19T04:33:30;20.40;99.90
54431;DHT22;40342;52.998;5.862;2023-06-19T04:35:57;20.40;99.90
54431;DHT22;40342;52.998;5.862;2023-06-19T04:38:23;20.40;99.90
54431;DHT22;40342;52.998;5.862;2023-06-19T04:40:52;20.40;99.90
54431;DHT22;40342;52.998;5.862;2023-06-19T04:43:17;20.40;99.90
54431;DHT22;40342;52.998;5.862;2023-06-19T04:45:43;20.50;99.90
54431;DHT22;40342;52.998;5.862;2023-06-19T04:48:09;20.50;99.90
54431;DHT22;40342;52.998;5.862;2023-06-19T04:50:35;20.50;99.90
54431;DHT22;40342;52.998;5.862;2023-06-19T04:53:00;20.50;99.90
54431;DHT22;40342;52.998;5.862;2023-06-19T04:55:26;20.50;99.90
54431;DHT22;40342;52.998;5.862;2023-06-19T04:57:52;20.50;99.90
54431;DHT22;40342;52.998;5.862;2023-06-19T05:00:18;20.50;99.90
54431;DHT22;40342;52.998;5.862;2023-06-19T05:02:49;20.50;99.90
54431;DHT22;40342;52.998;5.862;2023-06-19T05:05:14;20.50;99.90
54431;DHT22;40342;52.998;5.862;2023-06-19T05:07:41;20.50;99.90
54431;DHT22;40342;52.998;5.862;2023-06-19T05:10:06;20.50;99.90
54431;DHT22;40342;52.998;5.862;2023-06-19T05:12:34;20.50;99.90
54431;DHT22;40342;52.998;5.862;2023-06-19T05:15:00;20.50;99.90
54431;DHT22;40342;52.998;5.862;2023-06-19T05:17:26;20.50;99.90
54431;DHT22;40342;52.998;5.862;2023-06-19T05:19:51;20.50;99.90
54431;DHT22;40342;52.998;5.862;2023-06-19T05:22:17;20.50;99.90
54431;DHT22;40342;52.998;5.862;2023-06-19T05:24:44;20.50;99.90
54431;DHT22;40342;52.998;5.862;2023-06-19T05:27:09;20.50;99.90
54431;DHT22;40342;52.998;5.862;2023-06-19T05:29:35;20.50;99.90
54431;DHT22;40342;52.998;5.862;2023-06-19T05:32:01;20.60;99.90
54431;DHT22;40342;52.998;5.862;2023-06-19T05:34:26;20.60;99.90
54431;DHT22;40342;52.998;5.862;2023-06-19T05:36:52;20.60;99.90
54431;DHT22;40342;52.998;5.862;2023-06-19T05:39:18;20.60;99.90
54431;DHT22;40342;52.998;5.862;2023-06-19T05:41:44;20.70;99.90
54431;DHT22;40342;52.998;5.862;2023-06-19T05:44:11;20.70;99.90
54431;DHT22;40342;52.998;5.862;2023-06-19T05:46:40;20.70;99.90
54431;DHT22;40342;52.998;5.862;2023-06-19T05:49:06;20.70;99.90
54431;DHT22;40342;52.998;5.862;2023-06-19T05:51:31;20.70;99.90
54431;DHT22;40342;52.998;5.862;2023-06-19T05:53:57;20.70;99.90
54431;DHT22;40342;52.998;5.862;2023-06-19T05:56:29;20.70;99.90
54431;DHT22;40342;52.998;5.862;2023-06-19T05:58:54;20.60;99.90
54431;DHT22;40342;52.998;5.862;2023-06-19T06:01:20;20.60;99.90
54431;DHT22;40342;52.998;5.862;2023-06-19T06:03:45;20.50;99.90
54431;DHT22;40342;52.998;5.862;2023-06-19T06:06:11;20.40;99.90
54431;DHT22;40342;52.998;5.862;2023-06-19T06:08:36;20.30;99.90
54431;DHT22;40342;52.998;5.862;2023-06-19T06:11:02;20.20;99.90
54431;DHT22;40342;52.998;5.862;2023-06-19T06:13:27;20.20;99.90
54431;DHT22;40342;52.998;5.862;2023-06-19T06:15:53;20.10;99.90
54431;DHT22;40342;52.998;5.862;2023-06-19T06:18:19;20.10;99.90
54431;DHT22;40342;52.998;5.862;2023-06-19T06:20:44;20.00;99.90
54431;DHT22;40342;52.998;5.862;2023-06-19T06:23:10;19.90;99.90
54431;DHT22;40342;52.998;5.862;2023-06-19T06:25:36;19.90;99.90
54431;DHT22;40342;52.998;5.862;2023-06-19T06:28:01;19.80;99.90
54431;DHT22;40342;52.998;5.862;2023-06-19T06:30:27;19.80;99.90
54431;DHT22;40342;52.998;5.862;2023-06-19T06:32:53;19.70;99.90
54431;DHT22;40342;52.998;5.862;2023-06-19T06:35:21;19.70;99.90
54431;DHT22;40342;52.998;5.862;2023-06-19T06:37:46;19.70;99.90
54431;DHT22;40342;52.998;5.862;2023-06-19T06:40:14;19.70;99.90
54431;DHT22;40342;52.998;5.862;2023-06-19T06:42:40;19.60;99.90
54431;DHT22;40342;52.998;5.862;2023-06-19T06:45:06;19.70;99.90
54431;DHT22;40342;52.998;5.862;2023-06-19T06:47:33;19.60;99.90
54431;DHT22;40342;52.998;5.862;2023-06-19T06:49:58;19.60;99.90
54431;DHT22;40342;52.998;5.862;2023-06-19T06:52:24;19.60;99.90
54431;DHT22;40342;52.998;5.862;2023-06-19T06:54:49;19.50;99.90
54431;DHT22;40342;52.998;5.862;2023-06-19T06:57:16;19.50;99.90
54431;DHT22;40342;52.998;5.862;2023-06-19T06:59:41;19.50;99.90
54431;DHT22;40342;52.998;5.862;2023-06-19T07:02:07;19.40;99.90
54431;DHT22;40342;52.998;5.862;2023-06-19T07:04:32;19.40;99.90
54431;DHT22;40342;52.998;5.862;2023-06-19T07:06:58;19.40;99.90
54431;DHT22;40342;52.998;5.862;2023-06-19T07:09:24;19.40;99.90
54431;DHT22;40342;52.998;5.862;2023-06-19T07:11:50;19.40;99.90
54431;DHT22;40342;52.998;5.862;2023-06-19T07:14:15;19.40;99.90
54431;DHT22;40342;52.998;5.862;2023-06-19T07:16:44;19.40;99.90
54431;DHT22;40342;52.998;5.862;2023-06-19T07:19:10;19.30;99.90
54431;DHT22;40342;52.998;5.862;2023-06-19T07:21:36;19.20;99.90
54431;DHT22;40342;52.998;5.862;2023-06-19T07:24:02;19.20;99.90
54431;DHT22;40342;52.998;5.862;2023-06-19T07:26:27;19.10;99.90
54431;DHT22;40342;52.998;5.862;2023-06-19T07:28:53;19.00;99.90
54431;DHT22;40342;52.998;5.862;2023-06-19T07:31:18;19.00;99.90
54431;DHT22;40342;52.998;5.862;2023-06-19T07:33:44;19.00;99.90
54431;DHT22;40342;52.998;5.862;2023-06-19T07:36:10;19.10;99.90
54431;DHT22;40342;52.998;5.862;2023-06-19T07:38:40;19.00;99.90
54431;DHT22;40342;52.998;5.862;2023-06-19T07:41:05;19.00;99.90
54431;DHT22;40342;52.998;5.862;2023-06-19T07:43:32;19.00;99.90
54431;DHT22;40342;52.998;5.862;2023-06-19T07:45:58;18.90;99.90
54431;DHT22;40342;52.998;5.862;2023-06-19T07:48:24;18.90;99.90
54431;DHT22;40342;52.998;5.862;2023-06-19T07:50:50;18.90;99.90
54431;DHT22;40342;52.998;5.862;2023-06-19T07:53:15;18.80;99.90
54431;DHT22;40342;52.998;5.862;2023-06-19T07:55:41;18.80;99.90
54431;DHT22;40342;52.998;5.862;2023-06-19T07:58:07;18.90;99.90
54431;DHT22;40342;52.998;5.862;2023-06-19T08:00:33;18.90;99.90
54431;DHT22;40342;52.998;5.862;2023-06-19T08:02:58;18.90;99.90
54431;DHT22;40342;52.998;5.862;2023-06-19T08:05:24;18.90;99.90
54431;DHT22;40342;52.998;5.862;2023-06-19T08:07:49;18.90;99.90
54431;DHT22;40342;52.998;5.862;2023-06-19T08:10:15;19.00;99.90
54431;DHT22;40342;52.998;5.862;2023-06-19T08:12:41;19.00;99.90
54431;DHT22;40342;52.998;5.862;2023-06-19T08:15:08;19.10;99.90
54431;DHT22;40342;52.998;5.862;2023-06-19T08:17:33;19.10;99.90
54431;DHT22;40342;52.998;5.862;2023-06-19T08:20:00;19.10;99.90
54431;DHT22;40342;52.998;5.862;2023-06-19T08:22:25;19.20;99.90
54431;DHT22;40342;52.998;5.862;2023-06-19T08:24:51;19.20;99.90
54431;DHT22;40342;52.998;5.862;2023-06-19T08:27:16;19.20;99.90
54431;DHT22;40342;52.998;5.862;2023-06-19T08:29:42;19.20;99.90
54431;DHT22;40342;52.998;5.862;2023-06-19T08:32:08;19.20;99.90
54431;DHT22;40342;52.998;5.862;2023-06-19T08:34:35;19.20;99.90
54431;DHT22;40342;52.998;5.862;2023-06-19T08:37:00;19.20;99.90
54431;DHT22;40342;52.998;5.862;2023-06-19T08:39:26;19.10;99.90
54431;DHT22;40342;52.998;5.862;2023-06-19T08:41:51;19.10;99.90
54431;DHT22;40342;52.998;5.862;2023-06-19T08:44:18;19.10;99.90
54431;DHT22;40342;52.998;5.862;2023-06-19T08:46:44;19.10;99.90
54431;DHT22;40342;52.998;5.862;2023-06-19T08:49:10;19.10;99.90
54431;DHT22;40342;52.998;5.862;2023-06-19T08:51:36;19.10;99.90
54431;DHT22;40342;52.998;5.862;2023-06-19T08:54:04;19.00;99.90
54431;DHT22;40342;52.998;5.862;2023-06-19T08:56:31;19.10;99.90
54431;DHT22;40342;52.998;5.862;2023-06-19T08:59:17;19.10;99.90
54431;DHT22;40342;52.998;5.862;2023-06-19T09:01:50;19.10;99.90
54431;DHT22;40342;52.998;5.862;2023-06-19T09:04:25;19.10;99.90
54431;DHT22;40342;52.998;5.862;2023-06-19T09:06:57;19.10;99.90
54431;DHT22;40342;52.998;5.862;2023-06-19T09:09:25;19.00;99.90
54431;DHT22;40342;52.998;5.862;2023-06-19T09:11:57;19.00;99.90
54431;DHT22;40342;52.998;5.862;2023-06-19T09:14:33;19.00;99.90
54431;DHT22;40342;52.998;5.862;2023-06-19T09:17:00;19.00;99.90
54431;DHT22;40342;52.998;5.862;2023-06-19T09:19:26;18.90;99.90
54431;DHT22;40342;52.998;5.862;2023-06-19T09:21:51;18.90;99.90
54431;DHT22;40342;52.998;5.862;2023-06-19T09:24:17;18.90;99.90
54431;DHT22;40342;52.998;5.862;2023-06-19T09:26:42;19.00;99.90
54431;DHT22;40342;52.998;5.862;2023-06-19T09:29:15;19.00;99.90
54431;DHT22;40342;52.998;5.862;2023-06-19T09:31:44;19.10;99.90
54431;DHT22;40342;52.998;5.862;2023-06-19T09:34:10;19.10;99.90
54431;DHT22;40342;52.998;5.862;2023-06-19T09:36:36;19.20;99.90
54431;DHT22;40342;52.998;5.862;2023-06-19T09:39:04;19.20;99.90
54431;DHT22;40342;52.998;5.862;2023-06-19T09:41:30;19.20;99.90
54431;DHT22;40342;52.998;5.862;2023-06-19T09:43:58;19.30;99.90
54431;DHT22;40342;52.998;5.862;2023-06-19T09:46:30;19.30;99.90
54431;DHT22;40342;52.998;5.862;2023-06-19T09:49:01;19.30;99.90
54431;DHT22;40342;52.998;5.862;2023-06-19T09:51:37;19.20;99.90
54431;DHT22;40342;52.998;5.862;2023-06-19T09:54:03;19.20;99.90
54431;DHT22;40342;52.998;5.862;2023-06-19T09:56:31;19.20;99.90
54431;DHT22;40342;52.998;5.862;2023-06-19T09:58:57;19.30;99.90
54431;DHT22;40342;52.998;5.862;2023-06-19T10:01:30;19.30;99.90
54431;DHT22;40342;52.998;5.862;2023-06-19T10:04:08;19.40;99.90
54431;DHT22;40342;52.998;5.862;2023-06-19T10:06:46;19.40;99.90
54431;DHT22;40342;52.998;5.862;2023-06-19T10:09:14;19.50;99.90
54431;DHT22;40342;52.998;5.862;2023-06-19T10:11:52;19.60;99.90
54431;DHT22;40342;52.998;5.862;2023-06-19T10:14:19;19.70;99.90
54431;DHT22;40342;52.998;5.862;2023-06-19T10:16:45;19.80;99.90
54431;DHT22;40342;52.998;5.862;2023-06-19T10:19:20;19.90;99.90
54431;DHT22;40342;52.998;5.862;2023-06-19T10:21:51;20.00;99.90
54431;DHT22;40342;52.998;5.862;2023-06-19T10:24:18;20.00;99.90
54431;DHT22;40342;52.998;5.862;2023-06-19T10:26:59;20.10;99.90
54431;DHT22;40342;52.998;5.862;2023-06-19T10:29:25;20.30;99.90
54431;DHT22;40342;52.998;5.862;2023-06-19T10:31:53;20.30;99.90
54431;DHT22;40342;52.998;5.862;2023-06-19T10:34:18;20.30;99.90
54431;DHT22;40342;52.998;5.862;2023-06-19T10:36:44;20.30;99.90
54431;DHT22;40342;52.998;5.862;2023-06-19T10:39:10;20.20;99.90
54431;DHT22;40342;52.998;5.862;2023-06-19T10:41:35;20.20;99.90
54431;DHT22;40342;52.998;5.862;2023-06-19T10:44:06;20.10;99.90
54431;DHT22;40342;52.998;5.862;2023-06-19T10:46:38;20.10;99.90
54431;DHT22;40342;52.998;5.862;2023-06-19T10:49:06;20.10;99.90
54431;DHT22;40342;52.998;5.862;2023-06-19T10:51:37;20.00;99.90
54431;DHT22;40342;52.998;5.862;2023-06-19T10:54:03;19.90;99.90
54431;DHT22;40342;52.998;5.862;2023-06-19T10:56:29;19.90;99.90
54431;DHT22;40342;52.998;5.862;2023-06-19T10:59:03;19.90;99.90
54431;DHT22;40342;52.998;5.862;2023-06-19T11:01:36;19.90;99.90
54431;DHT22;40342;52.998;5.862;2023-06-19T11:04:08;19.80;99.90
54431;DHT22;40342;52.998;5.862;2023-06-19T11:06:34;19.80;99.90
54431;DHT22;40342;52.998;5.862;2023-06-19T11:09:00;19.80;99.90
54431;DHT22;40342;52.998;5.862;2023-06-19T11:14:05;19.90;99.90
54431;DHT22;40342;52.998;5.862;2023-06-19T11:16:32;19.90;99.90
54431;DHT22;40342;52.998;5.862;2023-06-19T11:18:58;19.90;99.90
54431;DHT22;40342;52.998;5.862;2023-06-19T11:21:35;19.90;99.90
54431;DHT22;40342;52.998;5.862;2023-06-19T11:24:13;20.00;99.90
54431;DHT22;40342;52.998;5.862;2023-06-19T11:26:40;20.10;99.90
54431;DHT22;40342;52.998;5.862;2023-06-19T11:31:41;20.40;99.90
54431;DHT22;40342;52.998;5.862;2023-06-19T11:34:07;20.40;99.90
54431;DHT22;40342;52.998;5.862;2023-06-19T11:36:32;20.40;99.90
54431;DHT22;40342;52.998;5.862;2023-06-19T11:39:02;20.50;99.90
54431;DHT22;40342;52.998;5.862;2023-06-19T11:41:30;20.80;99.90
54431;DHT22;40342;52.998;5.862;2023-06-19T11:44:00;21.00;99.90
54431;DHT22;40342;52.998;5.862;2023-06-19T11:46:33;21.20;99.90
54431;DHT22;40342;52.998;5.862;2023-06-19T11:49:18;21.40;99.90
54431;DHT22;40342;52.998;5.862;2023-06-19T11:51:44;21.50;99.90
54431;DHT22;40342;52.998;5.862;2023-06-19T11:54:11;21.60;99.90
54431;DHT22;40342;52.998;5.862;2023-06-19T11:56:38;21.60;99.90
54431;DHT22;40342;52.998;5.862;2023-06-19T11:59:05;21.60;99.90
54431;DHT22;40342;52.998;5.862;2023-06-19T12:01:35;21.60;99.90
54431;DHT22;40342;52.998;5.862;2023-06-19T12:04:02;21.60;99.90
54431;DHT22;40342;52.998;5.862;2023-06-19T12:06:28;21.50;99.90
54431;DHT22;40342;52.998;5.862;2023-06-19T12:08:54;21.60;99.90
54431;DHT22;40342;52.998;5.862;2023-06-19T12:11:20;21.60;99.90
54431;DHT22;40342;52.998;5.862;2023-06-19T12:13:45;21.70;99.90
54431;DHT22;40342;52.998;5.862;2023-06-19T12:16:11;21.80;99.90
54431;DHT22;40342;52.998;5.862;2023-06-19T12:18:37;21.90;99.90
54431;DHT22;40342;52.998;5.862;2023-06-19T12:21:03;22.00;99.90
54431;DHT22;40342;52.998;5.862;2023-06-19T12:23:29;22.20;99.90
54431;DHT22;40342;52.998;5.862;2023-06-19T12:25:55;22.30;99.90
54431;DHT22;40342;52.998;5.862;2023-06-19T12:28:20;22.40;99.90
54431;DHT22;40342;52.998;5.862;2023-06-19T12:30:47;22.60;99.90
54431;DHT22;40342;52.998;5.862;2023-06-19T12:33:16;22.70;99.90
54431;DHT22;40342;52.998;5.862;2023-06-19T12:35:43;22.90;99.90
54431;DHT22;40342;52.998;5.862;2023-06-19T12:38:09;23.00;99.90
54431;DHT22;40342;52.998;5.862;2023-06-19T12:40:36;23.10;99.90
54431;DHT22;40342;52.998;5.862;2023-06-19T12:43:01;23.10;99.90
54431;DHT22;40342;52.998;5.862;2023-06-19T12:45:27;23.20;99.90
54431;DHT22;40342;52.998;5.862;2023-06-19T12:47:52;23.20;99.90
54431;DHT22;40342;52.998;5.862;2023-06-19T12:50:18;23.30;99.90
54431;DHT22;40342;52.998;5.862;2023-06-19T12:52:43;23.20;99.90
54431;DHT22;40342;52.998;5.862;2023-06-19T12:55:09;23.30;99.90
54431;DHT22;40342;52.998;5.862;2023-06-19T12:57:34;23.40;99.90
54431;DHT22;40342;52.998;5.862;2023-06-19T13:00:00;23.40;99.90
54431;DHT22;40342;52.998;5.862;2023-06-19T13:02:26;23.40;99.90
54431;DHT22;40342;52.998;5.862;2023-06-19T13:04:52;23.50;99.90
54431;DHT22;40342;52.998;5.862;2023-06-19T13:07:17;23.60;99.90
54431;DHT22;40342;52.998;5.862;2023-06-19T13:09:43;23.60;99.90
54431;DHT22;40342;52.998;5.862;2023-06-19T13:12:09;23.70;99.90
54431;DHT22;40342;52.998;5.862;2023-06-19T13:14:34;23.80;99.90
54431;DHT22;40342;52.998;5.862;2023-06-19T13:17:00;23.90;99.90
54431;DHT22;40342;52.998;5.862;2023-06-19T13:19:26;24.00;99.90
54431;DHT22;40342;52.998;5.862;2023-06-19T13:21:52;24.00;99.90
54431;DHT22;40342;52.998;5.862;2023-06-19T13:24:18;24.10;99.90
54431;DHT22;40342;52.998;5.862;2023-06-19T13:26:44;24.10;99.90
54431;DHT22;40342;52.998;5.862;2023-06-19T13:29:11;24.20;99.90
54431;DHT22;40342;52.998;5.862;2023-06-19T13:31:37;24.20;99.90
54431;DHT22;40342;52.998;5.862;2023-06-19T13:34:03;24.30;99.90
54431;DHT22;40342;52.998;5.862;2023-06-19T13:36:28;24.30;99.90
54431;DHT22;40342;52.998;5.862;2023-06-19T13:38:54;24.30;99.90
54431;DHT22;40342;52.998;5.862;2023-06-19T13:41:20;24.30;99.90
54431;DHT22;40342;52.998;5.862;2023-06-19T13:43:49;24.40;99.90
54431;DHT22;40342;52.998;5.862;2023-06-19T13:46:15;24.30;99.20
54431;DHT22;40342;52.998;5.862;2023-06-19T13:48:41;24.40;99.90
54431;DHT22;40342;52.998;5.862;2023-06-19T13:51:06;24.30;99.90
54431;DHT22;40342;52.998;5.862;2023-06-19T13:53:32;24.40;99.90
54431;DHT22;40342;52.998;5.862;2023-06-19T13:55:58;24.50;99.90
54431;DHT22;40342;52.998;5.862;2023-06-19T13:58:24;24.60;99.90
54431;DHT22;40342;52.998;5.862;2023-06-19T14:00:49;24.60;99.90
54431;DHT22;40342;52.998;5.862;2023-06-19T14:03:15;24.60;99.30
54431;DHT22;40342;52.998;5.862;2023-06-19T14:05:41;24.70;99.90
54431;DHT22;40342;52.998;5.862;2023-06-19T14:08:06;24.70;99.80
54431;DHT22;40342;52.998;5.862;2023-06-19T14:10:33;24.80;99.00
54431;DHT22;40342;52.998;5.862;2023-06-19T14:12:59;24.80;99.00
54431;DHT22;40342;52.998;5.862;2023-06-19T14:15:25;24.80;99.10
54431;DHT22;40342;52.998;5.862;2023-06-19T14:17:50;24.80;98.90
54431;DHT22;40342;52.998;5.862;2023-06-19T14:20:16;24.80;98.00
54431;DHT22;40342;52.998;5.862;2023-06-19T14:22:41;24.80;98.70
54431;DHT22;40342;52.998;5.862;2023-06-19T14:25:07;24.80;98.50
54431;DHT22;40342;52.998;5.862;2023-06-19T14:27:33;24.80;97.80
54431;DHT22;40342;52.998;5.862;2023-06-19T14:29:59;24.80;97.80
54431;DHT22;40342;52.998;5.862;2023-06-19T14:32:24;24.80;98.60
54431;DHT22;40342;52.998;5.862;2023-06-19T14:34:50;24.80;98.00
54431;DHT22;40342;52.998;5.862;2023-06-19T14:37:16;24.70;97.90
54431;DHT22;40342;52.998;5.862;2023-06-19T14:39:42;24.60;98.40
54431;DHT22;40342;52.998;5.862;2023-06-19T14:42:08;24.70;99.90
54431;DHT22;40342;52.998;5.862;2023-06-19T14:44:35;24.80;99.20
54431;DHT22;40342;52.998;5.862;2023-06-19T14:47:01;24.80;98.40
54431;DHT22;40342;52.998;5.862;2023-06-19T14:49:27;24.80;98.30
54431;DHT22;40342;52.998;5.862;2023-06-19T14:51:53;24.90;98.20
54431;DHT22;40342;52.998;5.862;2023-06-19T14:54:19;24.80;98.20
54431;DHT22;40342;52.998;5.862;2023-06-19T14:56:45;24.80;97.80
54431;DHT22;40342;52.998;5.862;2023-06-19T14:59:13;24.80;98.40
54431;DHT22;40342;52.998;5.862;2023-06-19T15:01:39;24.90;98.40
54431;DHT22;40342;52.998;5.862;2023-06-19T15:04:05;24.90;98.00
54431;DHT22;40342;52.998;5.862;2023-06-19T15:06:31;24.90;98.40
54431;DHT22;40342;52.998;5.862;2023-06-19T15:08:57;24.90;97.60
54431;DHT22;40342;52.998;5.862;2023-06-19T15:11:22;24.90;96.10
54431;DHT22;40342;52.998;5.862;2023-06-19T15:13:48;24.70;96.80
54431;DHT22;40342;52.998;5.862;2023-06-19T15:16:13;24.70;97.10
54431;DHT22;40342;52.998;5.862;2023-06-19T15:18:40;24.70;97.60
54431;DHT22;40342;52.998;5.862;2023-06-19T15:21:06;24.70;97.50
54431;DHT22;40342;52.998;5.862;2023-06-19T15:23:33;24.60;97.10
54431;DHT22;40342;52.998;5.862;2023-06-19T15:25:59;24.60;97.20
54431;DHT22;40342;52.998;5.862;2023-06-19T15:28:24;24.60;96.00
54431;DHT22;40342;52.998;5.862;2023-06-19T15:30:50;24.50;96.60
54431;DHT22;40342;52.998;5.862;2023-06-19T15:33:16;24.40;97.40